createdAt,value
2017-10-29T00:01:10.579Z,8.10
2017-10-29T00:03:38.944Z,8.20
2017-10-29T00:06:06.568Z,8.43
2017-10-29T00:08:34.111Z,9.17
2017-10-29T00:11:01.676Z,8.90
2017-10-29T00:13:29.200Z,8.60
2017-10-29T00:15:56.731Z,9.27
2017-10-29T00:18:24.303Z,7.77
2017-10-29T00:20:51.835Z,9.70
2017-10-29T00:23:19.369Z,8.50
2017-10-29T00:25:46.946Z,8.23
2017-10-29T00:28:15.476Z,7.68
2017-10-29T00:30:43.000Z,9.23
2017-10-29T00:33:10.563Z,8.27
2017-10-29T00:35:38.097Z,9.20
2017-10-29T00:38:05.619Z,9.00
2017-10-29T00:40:33.952Z,8.65
2017-10-29T00:43:01.488Z,7.87
2017-10-29T00:45:29.640Z,8.40
2017-10-29T00:47:57.981Z,7.10
2017-10-29T00:50:25.517Z,8.20
2017-10-29T00:52:53.043Z,7.27
2017-10-29T00:55:21.364Z,7.53
2017-10-29T00:57:48.896Z,7.97
2017-10-29T01:00:17.272Z,6.70
2017-10-29T01:02:44.822Z,6.90
2017-10-29T01:05:12.363Z,7.22
2017-10-29T01:07:39.896Z,6.33
2017-10-29T01:10:07.496Z,6.20
2017-10-29T01:12:35.025Z,6.40
2017-10-29T01:15:02.553Z,6.07
2017-10-29T01:17:30.120Z,5.30
2017-10-29T01:19:57.647Z,5.03
2017-10-29T01:22:25.176Z,5.27
2017-10-29T01:24:52.824Z,6.27
2017-10-29T01:27:20.360Z,4.24
2017-10-29T01:29:47.887Z,4.63
2017-10-29T01:32:16.448Z,3.75
2017-10-29T01:34:43.992Z,4.17
2017-10-29T01:37:11.511Z,3.67
2017-10-29T01:39:39.055Z,4.47
2017-10-29T01:42:06.579Z,3.47
2017-10-29T01:44:34.122Z,3.47
2017-10-29T01:47:02.249Z,4.10
2017-10-29T01:49:29.779Z,3.50
2017-10-29T01:51:58.067Z,3.20
2017-10-29T01:54:25.640Z,3.83
2017-10-29T01:56:53.163Z,3.33
2017-10-29T01:59:20.692Z,3.40
2017-10-29T02:01:48.260Z,3.30
2017-10-29T02:04:16.421Z,3.40
2017-10-29T02:06:43.957Z,3.50
2017-10-29T02:09:11.522Z,3.30
2017-10-29T02:11:39.047Z,3.40
2017-10-29T02:14:07.343Z,3.70
2017-10-29T02:16:34.923Z,3.63
2017-10-29T02:19:02.456Z,3.70
2017-10-29T02:21:29.989Z,3.60
2017-10-29T02:23:57.564Z,3.47
2017-10-29T02:26:25.854Z,3.20
2017-10-29T02:28:53.383Z,2.65
2017-10-29T02:31:20.952Z,3.10
2017-10-29T02:33:49.242Z,3.35
2017-10-29T02:36:17.527Z,3.50
2017-10-29T02:38:45.117Z,3.57
2017-10-29T02:41:13.561Z,3.10
2017-10-29T02:43:41.852Z,2.83
2017-10-29T02:46:09.403Z,3.10
2017-10-29T02:48:37.168Z,3.33
2017-10-29T02:51:04.698Z,3.10
2017-10-29T02:53:32.243Z,2.97
2017-10-29T02:55:59.783Z,2.90
2017-10-29T02:58:27.303Z,2.83
2017-10-29T03:00:54.885Z,3.03
2017-10-29T03:03:22.419Z,2.72
2017-10-29T03:05:50.715Z,3.03
2017-10-29T03:08:18.273Z,2.50
2017-10-29T03:10:45.795Z,2.47
2017-10-29T03:13:14.540Z,2.50
2017-10-29T03:15:42.095Z,2.97
2017-10-29T03:18:09.616Z,2.90
2017-10-29T03:20:37.907Z,2.80
2017-10-29T03:23:05.508Z,2.30
2017-10-29T03:25:33.031Z,2.75
2017-10-29T03:28:00.559Z,2.47
2017-10-29T03:30:28.125Z,2.93
2017-10-29T03:32:56.415Z,2.80
2017-10-29T03:35:24.708Z,2.57
2017-10-29T03:37:52.264Z,2.50
2017-10-29T03:40:19.793Z,2.80
2017-10-29T03:42:47.323Z,2.80
2017-10-29T03:45:16.491Z,2.67
2017-10-29T03:47:44.024Z,2.97
2017-10-29T03:50:12.451Z,2.37
2017-10-29T03:52:40.016Z,2.50
2017-10-29T03:55:07.552Z,2.50
2017-10-29T03:57:35.092Z,2.50
2017-10-29T04:00:03.409Z,2.20
2017-10-29T04:02:30.940Z,2.67
2017-10-29T04:04:58.468Z,2.37
2017-10-29T04:07:26.043Z,2.13
2017-10-29T04:09:54.331Z,2.10
2017-10-29T04:12:21.847Z,2.60
2017-10-29T04:14:49.407Z,2.65
2017-10-29T04:17:16.931Z,2.20
2017-10-29T04:19:44.463Z,2.10
2017-10-29T04:22:12.011Z,1.90
2017-10-29T04:24:39.531Z,2.17
2017-10-29T04:27:07.055Z,2.00
2017-10-29T04:29:34.636Z,2.03
2017-10-29T04:32:02.169Z,2.30
2017-10-29T04:34:29.708Z,2.37
2017-10-29T04:36:58.037Z,2.37
2017-10-29T04:39:25.571Z,2.30
2017-10-29T04:41:53.097Z,2.10
2017-10-29T04:44:20.655Z,2.40
2017-10-29T04:46:48.190Z,1.90
2017-10-29T04:49:16.456Z,2.22
2017-10-29T04:51:44.657Z,1.97
2017-10-29T04:54:12.188Z,2.10
2017-10-29T04:56:39.722Z,2.10
2017-10-29T04:59:07.271Z,2.30
2017-10-29T05:01:34.816Z,2.07
2017-10-29T05:04:03.112Z,1.70
2017-10-29T05:06:30.744Z,2.12
2017-10-29T05:08:58.280Z,2.10
2017-10-29T05:11:25.908Z,2.12
2017-10-29T05:13:53.548Z,2.12
2017-10-29T05:16:21.100Z,2.20
2017-10-29T05:18:48.631Z,2.40
2017-10-29T05:21:16.427Z,2.20
2017-10-29T05:23:44.891Z,1.90
2017-10-29T05:26:12.425Z,2.00
2017-10-29T05:28:39.988Z,1.53
2017-10-29T05:31:07.520Z,1.50
2017-10-29T05:33:35.051Z,2.27
2017-10-29T05:36:02.629Z,1.63
2017-10-29T05:38:30.160Z,1.83
2017-10-29T05:40:57.687Z,1.60
2017-10-29T05:43:25.240Z,1.90
2017-10-29T05:45:52.767Z,1.73
2017-10-29T05:48:20.300Z,1.98
2017-10-29T05:50:47.856Z,1.70
2017-10-29T05:53:16.399Z,1.92
2017-10-29T05:55:43.923Z,2.00
2017-10-29T05:58:11.500Z,2.00
2017-10-29T06:00:39.028Z,2.00
2017-10-29T06:03:06.569Z,1.63
2017-10-29T06:05:34.128Z,2.17
2017-10-29T06:08:01.665Z,1.80
2017-10-29T06:10:29.196Z,1.67
2017-10-29T06:12:56.752Z,1.70
2017-10-29T06:15:24.336Z,1.47
2017-10-29T06:17:51.869Z,1.60
2017-10-29T06:20:19.456Z,1.50
2017-10-29T06:22:46.984Z,1.80
2017-10-29T06:25:15.525Z,1.60
2017-10-29T06:27:43.851Z,1.33
2017-10-29T06:30:11.369Z,1.20
2017-10-29T06:32:38.913Z,1.60
2017-10-29T06:35:06.564Z,1.40
2017-10-29T06:37:34.085Z,1.63
2017-10-29T06:40:01.603Z,1.67
2017-10-29T06:42:29.190Z,1.50
2017-10-29T06:44:56.713Z,1.67
2017-10-29T06:47:24.231Z,1.30
2017-10-29T06:49:51.788Z,1.70
2017-10-29T06:52:20.084Z,1.90
2017-10-29T06:54:47.869Z,1.80
2017-10-29T06:57:16.464Z,1.67
2017-10-29T06:59:43.995Z,2.00
2017-10-29T07:02:11.526Z,1.70
2017-10-29T07:04:39.125Z,1.73
2017-10-29T07:07:06.648Z,1.70
2017-10-29T07:09:34.176Z,1.67
2017-10-29T07:12:02.499Z,1.77
2017-10-29T07:14:30.026Z,2.30
2017-10-29T07:16:57.555Z,1.50
2017-10-29T07:19:25.129Z,1.67
2017-10-29T07:21:52.683Z,2.50
2017-10-29T07:24:20.221Z,1.95
2017-10-29T07:26:47.803Z,1.80
2017-10-29T07:29:16.388Z,1.80
2017-10-29T07:31:43.928Z,1.87
2017-10-29T07:34:11.485Z,1.75
2017-10-29T07:36:39.019Z,2.23
2017-10-29T07:39:07.320Z,1.77
2017-10-29T07:41:34.876Z,1.90
2017-10-29T07:44:02.407Z,2.20
2017-10-29T07:46:29.949Z,2.12
2017-10-29T07:48:57.541Z,1.67
2017-10-29T07:51:25.077Z,1.93
2017-10-29T07:53:52.596Z,1.80
2017-10-29T07:56:20.152Z,2.00
2017-10-29T07:58:47.684Z,1.83
2017-10-29T08:01:16.362Z,1.83
2017-10-29T08:03:43.909Z,2.40
2017-10-29T08:06:11.441Z,2.28
2017-10-29T08:08:38.969Z,2.10
2017-10-29T08:11:06.572Z,2.80
2017-10-29T08:13:34.108Z,2.30
2017-10-29T08:16:01.644Z,2.27
2017-10-29T08:18:29.204Z,2.30
2017-10-29T08:20:56.727Z,2.00
2017-10-29T08:23:24.395Z,2.17
2017-10-29T08:25:51.952Z,2.00
2017-10-29T08:28:19.480Z,2.22
2017-10-29T08:30:46.998Z,1.83
2017-10-29T08:33:27.644Z,1.93
2017-10-29T08:38:29.789Z,2.60
2017-10-29T08:40:58.087Z,2.00
2017-10-29T08:43:25.614Z,1.70
2017-10-29T08:45:53.928Z,1.73
2017-10-29T08:48:22.228Z,2.20
2017-10-29T08:50:49.782Z,2.33
2017-10-29T08:53:18.388Z,3.13
2017-10-29T08:55:46.019Z,2.27
2017-10-29T08:58:14.551Z,1.80
2017-10-29T09:00:42.129Z,2.47
2017-10-29T09:03:10.424Z,1.53
2017-10-29T09:05:37.948Z,2.20
2017-10-29T09:08:05.516Z,1.87
2017-10-29T09:10:33.824Z,2.55
2017-10-29T09:13:01.368Z,1.98
2017-10-29T09:15:28.972Z,1.53
2017-10-29T09:17:56.536Z,1.92
2017-10-29T09:20:25.142Z,1.97
2017-10-29T09:22:52.724Z,2.40
2017-10-29T09:25:20.290Z,1.95
2017-10-29T09:27:47.946Z,2.20
2017-10-29T09:30:16.492Z,1.65
2017-10-29T09:32:44.053Z,1.93
2017-10-29T09:35:11.636Z,1.90
2017-10-29T09:37:39.225Z,1.80
2017-10-29T09:40:07.020Z,2.17
2017-10-29T09:42:34.652Z,3.87
2017-10-29T09:45:02.268Z,1.97
2017-10-29T09:47:29.907Z,1.70
2017-10-29T09:49:57.485Z,2.28
2017-10-29T09:52:25.060Z,2.03
2017-10-29T09:54:52.607Z,1.60
2017-10-29T09:57:20.212Z,2.10
2017-10-29T09:59:48.077Z,2.00
2017-10-29T10:02:16.397Z,1.75
2017-10-29T10:04:43.982Z,1.70
2017-10-29T10:07:11.756Z,1.60
2017-10-29T10:09:40.064Z,1.97
2017-10-29T10:12:07.669Z,1.63
2017-10-29T10:14:35.321Z,2.00
2017-10-29T10:17:02.953Z,1.73
2017-10-29T10:19:30.525Z,1.70
2017-10-29T10:21:58.875Z,2.43
2017-10-29T10:24:26.421Z,1.65
2017-10-29T10:26:54.740Z,1.33
2017-10-29T10:29:22.488Z,2.13
2017-10-29T10:31:50.192Z,2.00
2017-10-29T10:34:17.775Z,1.83
2017-10-29T10:36:46.116Z,1.60
2017-10-29T10:39:15.502Z,1.80
2017-10-29T10:41:43.040Z,1.30
2017-10-29T10:44:10.626Z,1.60
2017-10-29T10:46:38.181Z,1.70
2017-10-29T10:49:05.724Z,2.03
2017-10-29T10:51:34.073Z,2.40
2017-10-29T10:54:01.784Z,1.90
2017-10-29T10:56:29.379Z,1.77
2017-10-29T10:58:56.970Z,2.10
2017-10-29T11:01:26.373Z,2.00
2017-10-29T11:03:53.949Z,2.10
2017-10-29T11:06:24.649Z,2.00
2017-10-29T11:08:52.197Z,2.30
2017-10-29T11:11:19.743Z,3.17
2017-10-29T11:13:48.438Z,2.53
2017-10-29T11:16:16.413Z,2.37
2017-10-29T11:18:45.260Z,2.87
2017-10-29T11:21:15.636Z,2.90
2017-10-29T11:23:43.197Z,3.50
2017-10-29T11:26:10.731Z,3.50
2017-10-29T11:28:38.348Z,3.47
2017-10-29T11:31:05.876Z,3.00
2017-10-29T11:33:33.408Z,2.90
2017-10-29T11:36:00.965Z,3.67
2017-10-29T11:38:28.496Z,4.45
2017-10-29T11:40:56.016Z,3.17
2017-10-29T11:43:23.593Z,3.30
2017-10-29T11:45:51.136Z,3.20
2017-10-29T11:48:18.703Z,2.70
2017-10-29T11:50:47.453Z,3.07
2017-10-29T11:53:16.463Z,3.22
2017-10-29T11:55:44.002Z,3.77
2017-10-29T11:58:11.586Z,3.40
2017-10-29T12:03:32.605Z,3.22
2017-10-29T12:06:00.136Z,3.50
2017-10-29T12:08:27.677Z,3.60
2017-10-29T12:10:56.040Z,4.40
2017-10-29T12:13:23.608Z,3.97
2017-10-29T12:15:51.907Z,4.47
2017-10-29T12:18:19.456Z,4.47
2017-10-29T12:20:48.002Z,4.90
2017-10-29T12:23:17.137Z,4.47
2017-10-29T12:25:44.683Z,4.40
2017-10-29T12:28:13.901Z,4.23
2017-10-29T12:30:41.439Z,8.32
2017-10-29T12:33:09.793Z,7.60
2017-10-29T12:35:37.327Z,7.87
2017-10-29T12:38:04.855Z,7.57
2017-10-29T12:40:32.425Z,4.40
2017-10-29T12:42:59.956Z,4.37
2017-10-29T12:45:28.332Z,4.60
2017-10-29T12:47:55.889Z,5.77
2017-10-29T12:50:23.424Z,4.10
2017-10-29T12:52:50.953Z,4.00
2017-10-29T12:55:18.535Z,3.85
2017-10-29T12:57:46.063Z,3.80
2017-10-29T13:00:15.551Z,4.57
2017-10-29T13:02:43.893Z,3.73
2017-10-29T13:05:12.516Z,4.28
2017-10-29T13:07:40.053Z,3.73
2017-10-29T13:10:07.607Z,4.03
2017-10-29T13:12:35.131Z,3.90
2017-10-29T13:15:02.661Z,3.23
2017-10-29T13:17:30.263Z,3.70
2017-10-29T13:19:57.797Z,3.97
2017-10-29T13:22:25.321Z,3.93
2017-10-29T13:24:52.913Z,3.63
2017-10-29T13:27:20.443Z,4.70
2017-10-29T13:29:47.980Z,4.13
2017-10-29T13:32:16.411Z,3.70
2017-10-29T13:34:43.944Z,3.90
2017-10-29T13:37:12.251Z,4.60
2017-10-29T13:39:39.824Z,4.00
2017-10-29T13:42:07.382Z,4.10
2017-10-29T13:44:34.933Z,4.00
2017-10-29T13:47:03.256Z,4.10
2017-10-29T13:49:30.794Z,5.07
2017-10-29T13:51:59.088Z,4.40
2017-10-29T13:54:26.655Z,3.90
2017-10-29T13:56:54.191Z,3.70
2017-10-29T13:59:21.717Z,3.77
2017-10-29T14:01:49.291Z,4.17
2017-10-29T14:04:16.822Z,3.93
2017-10-29T14:06:45.819Z,5.40
2017-10-29T14:09:15.353Z,4.62
2017-10-29T14:11:42.886Z,3.90
2017-10-29T14:14:10.419Z,3.60
2017-10-29T14:16:38.000Z,7.00
2017-10-29T14:19:05.537Z,6.00
2017-10-29T14:21:33.077Z,4.25
2017-10-29T14:24:01.400Z,4.90
2017-10-29T14:26:28.976Z,4.20
2017-10-29T14:28:56.513Z,4.40
2017-10-29T14:31:24.840Z,4.90
2017-10-29T14:33:52.371Z,8.90
2017-10-29T14:36:19.909Z,5.03
2017-10-29T14:38:48.251Z,5.07
2017-10-29T14:41:16.406Z,8.90
2017-10-29T14:43:43.931Z,7.07
2017-10-29T14:46:11.516Z,6.30
2017-10-29T14:48:39.077Z,7.73
2017-10-29T14:51:06.623Z,5.83
2017-10-29T14:53:34.177Z,6.97
2017-10-29T14:56:01.708Z,5.53
2017-10-29T14:58:30.000Z,5.33
2017-10-29T15:00:57.576Z,4.35
2017-10-29T15:03:25.600Z,5.70
2017-10-29T15:05:53.176Z,5.20
2017-10-29T15:08:20.771Z,4.90
2017-10-29T15:10:48.304Z,5.60
2017-10-29T15:13:16.445Z,4.60
2017-10-29T15:15:44.136Z,5.07
2017-10-29T15:18:12.452Z,4.40
2017-10-29T15:20:40.753Z,4.93
2017-10-29T15:23:08.304Z,5.07
2017-10-29T15:25:35.823Z,6.03
2017-10-29T15:28:03.363Z,5.10
2017-10-29T15:30:31.100Z,4.77
2017-10-29T15:32:59.153Z,4.13
2017-10-29T15:35:27.597Z,4.80
2017-10-29T15:37:55.189Z,4.00
2017-10-29T15:40:24.169Z,5.80
2017-10-29T15:42:51.876Z,4.63
2017-10-29T15:45:19.477Z,5.87
2017-10-29T15:47:48.012Z,4.60
2017-10-29T15:50:16.489Z,5.80
2017-10-29T15:52:44.100Z,4.47
2017-10-29T15:55:11.639Z,5.77
2017-10-29T15:57:39.180Z,4.43
2017-10-29T16:00:06.787Z,4.90
2017-10-29T16:02:37.261Z,4.97
2017-10-29T16:05:05.031Z,4.80
2017-10-29T16:07:32.596Z,4.95
2017-10-29T16:10:00.618Z,3.87
2017-10-29T16:12:28.148Z,4.87
2017-10-29T16:14:55.732Z,4.67
2017-10-29T16:17:24.523Z,4.90
2017-10-29T16:19:52.074Z,7.03
2017-10-29T16:22:20.020Z,4.78
2017-10-29T16:24:50.179Z,5.50
2017-10-29T16:27:17.728Z,5.90
2017-10-29T16:29:45.338Z,6.90
2017-10-29T16:32:26.139Z,6.55
2017-10-29T16:43:18.756Z,7.82
2017-10-29T16:45:46.601Z,7.10
2017-10-29T16:48:27.164Z,7.07
2017-10-29T16:54:16.649Z,5.57
2017-10-29T16:56:44.195Z,6.80
2017-10-29T16:59:11.751Z,6.17
2017-10-29T17:01:39.364Z,6.23
2017-10-29T17:04:06.911Z,5.97
2017-10-29T17:06:35.148Z,7.30
2017-10-29T17:09:06.305Z,4.70
2017-10-29T17:11:34.597Z,7.00
2017-10-29T17:14:02.923Z,5.70
2017-10-29T17:16:40.446Z,5.70
2017-10-29T17:19:07.973Z,4.80
2017-10-29T17:21:36.277Z,6.27
2017-10-29T17:24:03.834Z,4.70
2017-10-29T17:26:31.404Z,5.30
2017-10-29T17:28:58.936Z,4.33
2017-10-29T17:31:26.489Z,5.27
2017-10-29T17:33:54.007Z,5.93
2017-10-29T17:36:22.311Z,4.65
2017-10-29T17:38:49.922Z,4.80
2017-10-29T17:41:17.456Z,6.28
2017-10-29T17:43:45.006Z,7.50
2017-10-29T17:46:12.581Z,13.62
2017-10-29T17:48:40.120Z,9.23
2017-10-29T17:51:07.648Z,8.27
2017-10-29T17:53:35.968Z,9.60
2017-10-29T17:56:03.496Z,8.48
2017-10-29T17:58:31.029Z,8.17
2017-10-29T18:00:58.706Z,9.82
2017-10-29T18:03:26.239Z,9.43
2017-10-29T18:05:53.782Z,8.90
2017-10-29T18:08:21.353Z,9.00
2017-10-29T18:10:51.163Z,9.27
2017-10-29T18:13:18.863Z,7.40
2017-10-29T18:15:47.223Z,7.47
2017-10-29T18:18:27.791Z,7.80
2017-10-29T18:24:57.748Z,6.90
2017-10-29T18:27:26.065Z,4.97
2017-10-29T18:29:53.630Z,5.30
2017-10-29T18:32:21.204Z,7.43
2017-10-29T18:34:48.756Z,6.63
2017-10-29T18:37:17.164Z,6.63
2017-10-29T18:39:44.748Z,5.63
2017-10-29T18:42:12.303Z,5.97
2017-10-29T18:44:39.896Z,5.67
2017-10-29T18:47:07.476Z,5.87
2017-10-29T18:49:35.007Z,8.50
2017-10-29T18:52:02.531Z,7.00
2017-10-29T18:54:30.109Z,5.83
2017-10-29T18:56:57.715Z,6.80
2017-10-29T18:59:26.058Z,7.23
2017-10-29T19:01:53.934Z,7.20
2017-10-29T19:04:21.553Z,8.10
2017-10-29T19:06:51.557Z,6.30
2017-10-29T19:09:21.969Z,8.07
2017-10-29T19:11:49.532Z,6.50
2017-10-29T19:14:17.789Z,6.70
2017-10-29T19:16:45.414Z,5.20
2017-10-29T19:19:25.657Z,6.05
2017-10-29T19:31:24.375Z,5.95
2017-10-29T19:37:46.261Z,5.13
2017-10-29T19:40:26.088Z,5.43
2017-10-29T19:53:35.181Z,6.78
2017-10-29T19:56:02.968Z,5.90
2017-10-29T19:58:30.566Z,7.10
2017-10-29T20:00:58.165Z,5.43
2017-10-29T20:03:25.704Z,5.63
2017-10-29T20:05:53.344Z,6.43
2017-10-29T20:08:21.685Z,6.17
2017-10-29T20:10:49.232Z,6.10
2017-10-29T20:13:16.764Z,5.07
2017-10-29T20:15:45.704Z,6.17
2017-10-29T20:18:23.674Z,5.62
2017-10-29T20:23:27.205Z,5.60
2017-10-29T20:25:54.757Z,6.47
2017-10-29T20:28:23.100Z,5.75
2017-10-29T20:30:51.406Z,6.93
2017-10-29T20:33:18.986Z,6.37
2017-10-29T20:35:46.536Z,7.37
2017-10-29T20:38:16.275Z,8.13
2017-10-29T20:40:43.823Z,8.30
2017-10-29T20:43:11.404Z,8.80
2017-10-29T20:45:39.781Z,5.80
2017-10-29T20:48:07.316Z,9.90
2017-10-29T20:50:34.886Z,7.17
2017-10-29T20:53:04.349Z,6.30
2017-10-29T20:55:31.905Z,8.63
2017-10-29T20:57:59.449Z,7.17
2017-10-29T21:00:27.928Z,9.30
2017-10-29T21:02:55.556Z,10.02
2017-10-29T21:05:23.105Z,7.03
2017-10-29T21:07:50.681Z,6.77
2017-10-29T21:10:18.888Z,10.90
2017-10-29T21:12:46.444Z,7.45
2017-10-29T21:15:24.905Z,7.35
2017-10-29T21:21:10.802Z,10.00
2017-10-29T21:23:38.384Z,6.93
2017-10-29T21:26:06.021Z,8.37
2017-10-29T21:28:33.605Z,7.45
2017-10-29T21:31:01.170Z,9.43
2017-10-29T21:33:28.698Z,7.00
2017-10-29T21:35:56.300Z,7.20
2017-10-29T21:38:23.824Z,6.33
2017-10-29T21:40:51.356Z,5.63
2017-10-29T21:43:19.684Z,5.33
2017-10-29T21:45:47.221Z,5.03
2017-10-29T21:48:16.490Z,6.30
2017-10-29T21:50:44.824Z,6.93
2017-10-29T21:53:12.366Z,7.18
2017-10-29T21:55:39.897Z,6.80
2017-10-29T21:58:07.483Z,5.55
2017-10-29T22:00:35.012Z,7.30
2017-10-29T22:03:03.311Z,7.63
2017-10-29T22:05:30.870Z,7.93
2017-10-29T22:07:58.507Z,6.70
2017-10-29T22:10:27.341Z,6.03
2017-10-29T22:12:54.915Z,7.20
2017-10-29T22:15:22.439Z,7.00
2017-10-29T22:17:50.743Z,6.57
2017-10-29T22:20:18.311Z,7.17
2017-10-29T22:22:46.326Z,5.57
2017-10-29T22:25:15.507Z,6.75
2017-10-29T22:27:43.827Z,6.43
2017-10-29T22:30:11.351Z,5.57
2017-10-29T22:32:38.883Z,4.83
2017-10-29T22:35:06.431Z,6.27
2017-10-29T22:37:33.960Z,5.43
2017-10-29T22:40:01.492Z,5.70
2017-10-29T22:42:29.426Z,6.00
2017-10-29T22:44:57.747Z,5.63
2017-10-29T22:47:26.035Z,5.23
2017-10-29T22:49:53.592Z,5.67
2017-10-29T22:52:21.144Z,5.80
2017-10-29T22:54:48.684Z,5.90
2017-10-29T22:57:16.460Z,6.50
2017-10-29T22:59:43.982Z,5.73
2017-10-29T23:02:11.515Z,6.37
2017-10-29T23:04:39.099Z,4.90
2017-10-29T23:07:18.543Z,6.47
2017-10-29T23:09:46.099Z,5.70
2017-10-29T23:12:15.466Z,4.95
2017-10-29T23:14:42.987Z,4.87
2017-10-29T23:17:11.307Z,5.80
2017-10-29T23:19:38.836Z,6.90
2017-10-29T23:22:07.135Z,5.78
2017-10-29T23:24:34.851Z,6.00
2017-10-29T23:27:02.384Z,5.87
2017-10-29T23:29:29.911Z,6.20
2017-10-29T23:31:57.464Z,5.62
2017-10-29T23:34:25.009Z,5.73
2017-10-29T23:36:52.542Z,5.60
2017-10-29T23:39:20.087Z,5.82
2017-10-29T23:41:47.620Z,6.67
2017-10-29T23:44:16.444Z,5.72
2017-10-29T23:46:44.040Z,6.33
2017-10-29T23:49:11.571Z,6.03
2017-10-29T23:51:39.092Z,7.50
2017-10-29T23:54:06.645Z,6.70
2017-10-29T23:56:34.176Z,5.80
2017-10-29T23:59:01.747Z,6.07
